sensor_id;sensor_type;location;lat;lon;timestamp;temperature;humidity
86136;DHT22;76795;51.360;4.546;2024-03-07T00:02:20;6.60;90.30
86136;DHT22;76795;51.360;4.546;2024-03-07T00:04:46;6.60;90.30
86136;DHT22;76795;51.360;4.546;2024-03-07T00:07:11;6.60;90.30
86136;DHT22;76795;51.360;4.546;2024-03-07T00:09:37;6.50;90.40
86136;DHT22;76795;51.360;4.546;2024-03-07T00:12:03;6.50;90.30
86136;DHT22;76795;51.360;4.546;2024-03-07T00:14:31;6.50;90.50
86136;DHT22;76795;51.360;4.546;2024-03-07T00:16:58;6.50;90.70
86136;DHT22;76795;51.360;4.546;2024-03-07T00:19:25;6.50;90.80
86136;DHT22;76795;51.360;4.546;2024-03-07T00:21:56;6.50;90.80
86136;DHT22;76795;51.360;4.546;2024-03-07T00:24:22;6.50;90.80
86136;DHT22;76795;51.360;4.546;2024-03-07T00:26:48;6.50;90.80
86136;DHT22;76795;51.360;4.546;2024-03-07T00:29:17;6.50;90.70
86136;DHT22;76795;51.360;4.546;2024-03-07T00:31:47;6.50;90.80
86136;DHT22;76795;51.360;4.546;2024-03-07T00:34:16;6.40;91.00
86136;DHT22;76795;51.360;4.546;2024-03-07T00:36:42;6.50;90.90
86136;DHT22;76795;51.360;4.546;2024-03-07T00:39:08;6.50;90.60
86136;DHT22;76795;51.360;4.546;2024-03-07T00:41:40;6.50;90.50
86136;DHT22;76795;51.360;4.546;2024-03-07T00:44:07;6.50;90.40
86136;DHT22;76795;51.360;4.546;2024-03-07T00:46:36;6.40;90.70
86136;DHT22;76795;51.360;4.546;2024-03-07T00:49:03;6.40;90.50
86136;DHT22;76795;51.360;4.546;2024-03-07T00:51:28;6.20;90.60
86136;DHT22;76795;51.360;4.546;2024-03-07T00:53:55;6.20;90.50
86136;DHT22;76795;51.360;4.546;2024-03-07T00:56:21;6.10;90.60
86136;DHT22;76795;51.360;4.546;2024-03-07T00:58:48;6.00;90.60
86136;DHT22;76795;51.360;4.546;2024-03-07T01:01:14;6.00;90.70
86136;DHT22;76795;51.360;4.546;2024-03-07T01:03:41;5.90;90.70
86136;DHT22;76795;51.360;4.546;2024-03-07T01:06:06;5.80;90.90
86136;DHT22;76795;51.360;4.546;2024-03-07T01:08:35;5.80;91.00
86136;DHT22;76795;51.360;4.546;2024-03-07T01:11:02;5.80;91.10
86136;DHT22;76795;51.360;4.546;2024-03-07T01:13:36;5.70;91.10
86136;DHT22;76795;51.360;4.546;2024-03-07T01:16:02;5.70;90.90
86136;DHT22;76795;51.360;4.546;2024-03-07T01:18:27;5.60;90.70
86136;DHT22;76795;51.360;4.546;2024-03-07T01:20:53;5.60;91.00
86136;DHT22;76795;51.360;4.546;2024-03-07T01:23:20;5.50;91.00
86136;DHT22;76795;51.360;4.546;2024-03-07T01:25:46;5.40;91.30
86136;DHT22;76795;51.360;4.546;2024-03-07T01:28:11;5.50;91.10
86136;DHT22;76795;51.360;4.546;2024-03-07T01:30:38;5.40;91.00
86136;DHT22;76795;51.360;4.546;2024-03-07T01:33:03;5.40;91.10
86136;DHT22;76795;51.360;4.546;2024-03-07T01:35:29;5.40;91.00
86136;DHT22;76795;51.360;4.546;2024-03-07T01:37:55;5.40;91.00
86136;DHT22;76795;51.360;4.546;2024-03-07T01:40:20;5.30;91.20
86136;DHT22;76795;51.360;4.546;2024-03-07T01:42:52;5.30;91.40
86136;DHT22;76795;51.360;4.546;2024-03-07T01:45:18;5.30;91.10
86136;DHT22;76795;51.360;4.546;2024-03-07T01:47:44;5.30;91.30
86136;DHT22;76795;51.360;4.546;2024-03-07T01:50:10;5.20;91.50
86136;DHT22;76795;51.360;4.546;2024-03-07T01:52:38;5.20;91.50
86136;DHT22;76795;51.360;4.546;2024-03-07T01:55:05;5.20;92.30
86136;DHT22;76795;51.360;4.546;2024-03-07T01:57:31;5.20;91.40
86136;DHT22;76795;51.360;4.546;2024-03-07T01:59:57;5.10;91.50
86136;DHT22;76795;51.360;4.546;2024-03-07T02:02:23;5.10;91.60
86136;DHT22;76795;51.360;4.546;2024-03-07T02:04:48;5.10;91.50
86136;DHT22;76795;51.360;4.546;2024-03-07T02:07:14;5.10;91.40
86136;DHT22;76795;51.360;4.546;2024-03-07T02:09:41;5.20;91.20
86136;DHT22;76795;51.360;4.546;2024-03-07T02:12:07;5.10;91.70
86136;DHT22;76795;51.360;4.546;2024-03-07T02:14:34;5.10;91.40
86136;DHT22;76795;51.360;4.546;2024-03-07T02:17:00;5.00;91.00
86136;DHT22;76795;51.360;4.546;2024-03-07T02:19:26;5.00;91.00
86136;DHT22;76795;51.360;4.546;2024-03-07T02:21:51;5.00;91.00
86136;DHT22;76795;51.360;4.546;2024-03-07T02:24:17;4.90;91.00
86136;DHT22;76795;51.360;4.546;2024-03-07T02:26:42;4.90;91.30
86136;DHT22;76795;51.360;4.546;2024-03-07T02:29:09;4.80;91.10
86136;DHT22;76795;51.360;4.546;2024-03-07T02:31:35;4.80;91.40
86136;DHT22;76795;51.360;4.546;2024-03-07T02:34:03;4.80;91.90
86136;DHT22;76795;51.360;4.546;2024-03-07T02:36:29;4.80;91.80
86136;DHT22;76795;51.360;4.546;2024-03-07T02:38:55;4.80;92.30
86136;DHT22;76795;51.360;4.546;2024-03-07T02:41:21;4.80;91.70
86136;DHT22;76795;51.360;4.546;2024-03-07T02:43:46;4.90;91.80
86136;DHT22;76795;51.360;4.546;2024-03-07T02:46:12;4.90;91.60
86136;DHT22;76795;51.360;4.546;2024-03-07T02:48:38;4.90;91.60
86136;DHT22;76795;51.360;4.546;2024-03-07T02:51:05;4.90;91.50
86136;DHT22;76795;51.360;4.546;2024-03-07T02:53:31;4.80;91.60
86136;DHT22;76795;51.360;4.546;2024-03-07T02:55:58;4.80;91.80
86136;DHT22;76795;51.360;4.546;2024-03-07T02:58:24;4.80;91.30
86136;DHT22;76795;51.360;4.546;2024-03-07T03:00:58;4.70;91.60
86136;DHT22;76795;51.360;4.546;2024-03-07T03:03:27;4.80;91.50
86136;DHT22;76795;51.360;4.546;2024-03-07T03:05:52;4.70;91.40
86136;DHT22;76795;51.360;4.546;2024-03-07T03:08:19;4.60;91.30
86136;DHT22;76795;51.360;4.546;2024-03-07T03:10:44;4.50;91.50
86136;DHT22;76795;51.360;4.546;2024-03-07T03:13:10;4.40;91.60
86136;DHT22;76795;51.360;4.546;2024-03-07T03:15:36;4.40;91.50
86136;DHT22;76795;51.360;4.546;2024-03-07T03:18:04;4.40;91.50
86136;DHT22;76795;51.360;4.546;2024-03-07T03:20:31;4.40;92.20
86136;DHT22;76795;51.360;4.546;2024-03-07T03:23:00;4.40;92.70
86136;DHT22;76795;51.360;4.546;2024-03-07T03:25:28;4.40;92.60
86136;DHT22;76795;51.360;4.546;2024-03-07T03:27:53;4.50;92.90
86136;DHT22;76795;51.360;4.546;2024-03-07T03:30:19;4.50;93.10
86136;DHT22;76795;51.360;4.546;2024-03-07T03:32:47;4.50;93.40
86136;DHT22;76795;51.360;4.546;2024-03-07T03:35:14;4.40;93.70
86136;DHT22;76795;51.360;4.546;2024-03-07T03:37:42;4.50;94.00
86136;DHT22;76795;51.360;4.546;2024-03-07T03:40:09;4.50;94.10
86136;DHT22;76795;51.360;4.546;2024-03-07T03:42:36;4.50;94.10
86136;DHT22;76795;51.360;4.546;2024-03-07T03:45:03;4.50;94.20
86136;DHT22;76795;51.360;4.546;2024-03-07T03:47:37;4.60;94.30
86136;DHT22;76795;51.360;4.546;2024-03-07T03:50:07;4.60;94.20
86136;DHT22;76795;51.360;4.546;2024-03-07T03:52:33;4.60;94.20
86136;DHT22;76795;51.360;4.546;2024-03-07T03:55:01;4.70;94.10
86136;DHT22;76795;51.360;4.546;2024-03-07T03:57:28;4.60;94.20
86136;DHT22;76795;51.360;4.546;2024-03-07T03:59:55;4.60;94.10
86136;DHT22;76795;51.360;4.546;2024-03-07T04:02:21;4.60;94.00
86136;DHT22;76795;51.360;4.546;2024-03-07T04:04:48;4.70;93.70
86136;DHT22;76795;51.360;4.546;2024-03-07T04:07:14;4.70;93.40
86136;DHT22;76795;51.360;4.546;2024-03-07T04:09:42;4.70;93.30
86136;DHT22;76795;51.360;4.546;2024-03-07T04:12:08;4.70;93.40
86136;DHT22;76795;51.360;4.546;2024-03-07T04:14:40;4.70;93.30
86136;DHT22;76795;51.360;4.546;2024-03-07T04:17:09;4.50;93.90
86136;DHT22;76795;51.360;4.546;2024-03-07T04:19:41;4.40;94.50
86136;DHT22;76795;51.360;4.546;2024-03-07T04:22:08;4.40;94.30
86136;DHT22;76795;51.360;4.546;2024-03-07T04:24:37;4.40;94.30
86136;DHT22;76795;51.360;4.546;2024-03-07T04:27:04;4.50;94.20
86136;DHT22;76795;51.360;4.546;2024-03-07T04:29:31;4.50;94.10
86136;DHT22;76795;51.360;4.546;2024-03-07T04:31:57;4.60;93.70
86136;DHT22;76795;51.360;4.546;2024-03-07T04:34:23;4.60;93.60
86136;DHT22;76795;51.360;4.546;2024-03-07T04:36:49;4.60;93.90
86136;DHT22;76795;51.360;4.546;2024-03-07T04:39:15;4.50;93.80
86136;DHT22;76795;51.360;4.546;2024-03-07T04:42:02;4.50;93.70
86136;DHT22;76795;51.360;4.546;2024-03-07T04:44:29;4.40;93.80
86136;DHT22;76795;51.360;4.546;2024-03-07T04:46:55;4.30;94.40
86136;DHT22;76795;51.360;4.546;2024-03-07T04:49:23;4.20;94.50
86136;DHT22;76795;51.360;4.546;2024-03-07T04:51:53;4.30;94.70
86136;DHT22;76795;51.360;4.546;2024-03-07T04:54:20;4.30;94.50
86136;DHT22;76795;51.360;4.546;2024-03-07T04:56:46;4.20;94.70
86136;DHT22;76795;51.360;4.546;2024-03-07T04:59:16;4.20;94.80
86136;DHT22;76795;51.360;4.546;2024-03-07T05:01:43;4.20;94.90
86136;DHT22;76795;51.360;4.546;2024-03-07T05:04:09;4.20;94.70
86136;DHT22;76795;51.360;4.546;2024-03-07T05:06:35;4.20;94.80
86136;DHT22;76795;51.360;4.546;2024-03-07T05:09:04;4.30;94.50
86136;DHT22;76795;51.360;4.546;2024-03-07T05:11:31;4.30;94.40
86136;DHT22;76795;51.360;4.546;2024-03-07T05:14:00;4.20;94.50
86136;DHT22;76795;51.360;4.546;2024-03-07T05:16:30;4.20;94.60
86136;DHT22;76795;51.360;4.546;2024-03-07T05:18:56;4.10;94.60
86136;DHT22;76795;51.360;4.546;2024-03-07T05:21:25;4.10;94.90
86136;DHT22;76795;51.360;4.546;2024-03-07T05:24:12;4.20;94.60
86136;DHT22;76795;51.360;4.546;2024-03-07T05:26:37;4.30;94.10
86136;DHT22;76795;51.360;4.546;2024-03-07T05:29:05;4.30;94.00
86136;DHT22;76795;51.360;4.546;2024-03-07T05:31:34;4.30;94.00
86136;DHT22;76795;51.360;4.546;2024-03-07T05:34:00;4.30;94.00
86136;DHT22;76795;51.360;4.546;2024-03-07T05:36:32;4.30;93.90
86136;DHT22;76795;51.360;4.546;2024-03-07T05:38:58;4.30;94.00
86136;DHT22;76795;51.360;4.546;2024-03-07T05:41:24;4.40;93.80
86136;DHT22;76795;51.360;4.546;2024-03-07T05:43:53;4.30;93.90
86136;DHT22;76795;51.360;4.546;2024-03-07T05:46:19;4.30;94.40
86136;DHT22;76795;51.360;4.546;2024-03-07T05:48:45;4.40;93.80
86136;DHT22;76795;51.360;4.546;2024-03-07T05:51:11;4.40;93.70
86136;DHT22;76795;51.360;4.546;2024-03-07T05:53:37;4.40;93.40
86136;DHT22;76795;51.360;4.546;2024-03-07T05:56:03;4.40;93.30
86136;DHT22;76795;51.360;4.546;2024-03-07T05:58:29;4.50;93.50
86136;DHT22;76795;51.360;4.546;2024-03-07T06:00:55;4.50;93.40
86136;DHT22;76795;51.360;4.546;2024-03-07T06:03:21;4.50;93.10
86136;DHT22;76795;51.360;4.546;2024-03-07T06:05:47;4.50;93.20
86136;DHT22;76795;51.360;4.546;2024-03-07T06:08:17;4.50;93.10
86136;DHT22;76795;51.360;4.546;2024-03-07T06:10:45;4.50;93.10
86136;DHT22;76795;51.360;4.546;2024-03-07T06:13:14;4.50;93.10
86136;DHT22;76795;51.360;4.546;2024-03-07T06:15:44;4.50;92.90
86136;DHT22;76795;51.360;4.546;2024-03-07T06:18:10;4.50;92.90
86136;DHT22;76795;51.360;4.546;2024-03-07T06:20:36;4.50;93.00
86136;DHT22;76795;51.360;4.546;2024-03-07T06:23:03;4.50;93.00
86136;DHT22;76795;51.360;4.546;2024-03-07T06:25:31;4.40;93.00
86136;DHT22;76795;51.360;4.546;2024-03-07T06:28:04;4.30;93.00
86136;DHT22;76795;51.360;4.546;2024-03-07T06:30:40;4.30;93.30
86136;DHT22;76795;51.360;4.546;2024-03-07T06:33:07;4.30;93.40
86136;DHT22;76795;51.360;4.546;2024-03-07T06:35:33;4.30;93.40
86136;DHT22;76795;51.360;4.546;2024-03-07T06:38:06;4.40;93.40
86136;DHT22;76795;51.360;4.546;2024-03-07T06:40:32;4.50;93.10
86136;DHT22;76795;51.360;4.546;2024-03-07T06:43:01;4.50;93.00
86136;DHT22;76795;51.360;4.546;2024-03-07T06:45:29;4.60;92.90
86136;DHT22;76795;51.360;4.546;2024-03-07T06:47:55;4.50;92.80
86136;DHT22;76795;51.360;4.546;2024-03-07T06:50:22;4.60;93.00
86136;DHT22;76795;51.360;4.546;2024-03-07T06:52:48;4.60;93.00
86136;DHT22;76795;51.360;4.546;2024-03-07T06:55:18;4.70;92.70
86136;DHT22;76795;51.360;4.546;2024-03-07T06:57:47;4.70;92.70
86136;DHT22;76795;51.360;4.546;2024-03-07T07:00:13;4.70;92.70
86136;DHT22;76795;51.360;4.546;2024-03-07T07:02:45;4.80;92.70
86136;DHT22;76795;51.360;4.546;2024-03-07T07:05:11;4.80;92.50
86136;DHT22;76795;51.360;4.546;2024-03-07T07:07:38;4.80;92.70
86136;DHT22;76795;51.360;4.546;2024-03-07T07:10:04;4.80;92.70
86136;DHT22;76795;51.360;4.546;2024-03-07T07:12:34;4.80;93.00
86136;DHT22;76795;51.360;4.546;2024-03-07T07:15:00;4.80;93.00
86136;DHT22;76795;51.360;4.546;2024-03-07T07:17:26;4.90;92.90
86136;DHT22;76795;51.360;4.546;2024-03-07T07:19:55;5.00;92.60
86136;DHT22;76795;51.360;4.546;2024-03-07T07:22:21;5.00;92.80
86136;DHT22;76795;51.360;4.546;2024-03-07T07:24:47;5.00;92.80
86136;DHT22;76795;51.360;4.546;2024-03-07T07:27:12;5.00;92.90
86136;DHT22;76795;51.360;4.546;2024-03-07T07:29:38;4.90;93.30
86136;DHT22;76795;51.360;4.546;2024-03-07T07:32:05;5.10;93.20
86136;DHT22;76795;51.360;4.546;2024-03-07T07:34:30;5.10;93.40
86136;DHT22;76795;51.360;4.546;2024-03-07T07:36:56;5.20;92.90
86136;DHT22;76795;51.360;4.546;2024-03-07T07:39:22;5.30;92.70
86136;DHT22;76795;51.360;4.546;2024-03-07T07:41:48;5.40;92.60
86136;DHT22;76795;51.360;4.546;2024-03-07T07:44:14;5.50;92.50
86136;DHT22;76795;51.360;4.546;2024-03-07T07:46:39;5.50;92.30
86136;DHT22;76795;51.360;4.546;2024-03-07T07:49:06;5.50;92.80
86136;DHT22;76795;51.360;4.546;2024-03-07T07:51:44;5.60;92.80
86136;DHT22;76795;51.360;4.546;2024-03-07T07:54:15;5.60;92.90
86136;DHT22;76795;51.360;4.546;2024-03-07T07:56:41;5.70;92.70
86136;DHT22;76795;51.360;4.546;2024-03-07T07:59:06;5.70;92.50
86136;DHT22;76795;51.360;4.546;2024-03-07T08:01:41;5.50;92.90
86136;DHT22;76795;51.360;4.546;2024-03-07T08:04:09;5.60;93.00
86136;DHT22;76795;51.360;4.546;2024-03-07T08:06:35;5.60;93.20
86136;DHT22;76795;51.360;4.546;2024-03-07T08:09:01;5.70;92.90
86136;DHT22;76795;51.360;4.546;2024-03-07T08:11:26;5.90;92.70
86136;DHT22;76795;51.360;4.546;2024-03-07T08:13:52;5.90;92.20
86136;DHT22;76795;51.360;4.546;2024-03-07T08:16:18;5.90;92.50
86136;DHT22;76795;51.360;4.546;2024-03-07T08:18:44;6.00;92.50
86136;DHT22;76795;51.360;4.546;2024-03-07T08:21:09;6.00;92.40
86136;DHT22;76795;51.360;4.546;2024-03-07T08:23:38;6.10;92.20
86136;DHT22;76795;51.360;4.546;2024-03-07T08:26:04;6.20;92.10
86136;DHT22;76795;51.360;4.546;2024-03-07T08:28:31;6.20;92.20
86136;DHT22;76795;51.360;4.546;2024-03-07T08:30:57;6.20;92.20
86136;DHT22;76795;51.360;4.546;2024-03-07T08:33:24;6.40;92.40
86136;DHT22;76795;51.360;4.546;2024-03-07T08:35:49;6.30;92.10
86136;DHT22;76795;51.360;4.546;2024-03-07T08:38:18;6.30;92.20
86136;DHT22;76795;51.360;4.546;2024-03-07T08:40:44;6.40;92.20
86136;DHT22;76795;51.360;4.546;2024-03-07T08:43:09;6.40;91.90
86136;DHT22;76795;51.360;4.546;2024-03-07T08:45:35;6.50;91.70
86136;DHT22;76795;51.360;4.546;2024-03-07T08:48:02;6.60;91.60
86136;DHT22;76795;51.360;4.546;2024-03-07T08:50:32;6.70;91.70
86136;DHT22;76795;51.360;4.546;2024-03-07T08:52:59;6.70;90.60
86136;DHT22;76795;51.360;4.546;2024-03-07T08:55:26;6.80;90.90
86136;DHT22;76795;51.360;4.546;2024-03-07T08:57:52;6.80;90.80
86136;DHT22;76795;51.360;4.546;2024-03-07T09:00:18;6.90;90.60
86136;DHT22;76795;51.360;4.546;2024-03-07T09:02:51;7.00;89.60
86136;DHT22;76795;51.360;4.546;2024-03-07T09:05:21;7.00;90.00
86136;DHT22;76795;51.360;4.546;2024-03-07T09:07:51;7.10;89.90
86136;DHT22;76795;51.360;4.546;2024-03-07T09:10:17;7.10;88.90
86136;DHT22;76795;51.360;4.546;2024-03-07T09:12:43;7.30;88.90
86136;DHT22;76795;51.360;4.546;2024-03-07T09:15:10;7.30;88.40
86136;DHT22;76795;51.360;4.546;2024-03-07T09:17:36;7.30;89.10
86136;DHT22;76795;51.360;4.546;2024-03-07T09:20:05;7.30;88.00
86136;DHT22;76795;51.360;4.546;2024-03-07T09:22:32;7.50;86.50
86136;DHT22;76795;51.360;4.546;2024-03-07T09:24:58;7.50;86.20
86136;DHT22;76795;51.360;4.546;2024-03-07T09:27:24;7.60;86.60
86136;DHT22;76795;51.360;4.546;2024-03-07T09:29:50;7.70;87.50
86136;DHT22;76795;51.360;4.546;2024-03-07T09:32:17;7.80;85.20
86136;DHT22;76795;51.360;4.546;2024-03-07T09:34:42;7.80;84.60
86136;DHT22;76795;51.360;4.546;2024-03-07T09:37:08;7.90;83.30
86136;DHT22;76795;51.360;4.546;2024-03-07T09:39:34;8.00;82.80
86136;DHT22;76795;51.360;4.546;2024-03-07T09:42:07;8.00;82.80
86136;DHT22;76795;51.360;4.546;2024-03-07T09:44:36;8.00;81.70
86136;DHT22;76795;51.360;4.546;2024-03-07T09:47:05;8.00;82.40
86136;DHT22;76795;51.360;4.546;2024-03-07T09:49:33;8.10;80.90
86136;DHT22;76795;51.360;4.546;2024-03-07T09:52:04;8.00;80.50
86136;DHT22;76795;51.360;4.546;2024-03-07T09:54:34;8.20;80.70
86136;DHT22;76795;51.360;4.546;2024-03-07T09:57:02;8.20;80.50
86136;DHT22;76795;51.360;4.546;2024-03-07T09:59:28;8.30;78.30
86136;DHT22;76795;51.360;4.546;2024-03-07T10:01:59;8.40;79.00
86136;DHT22;76795;51.360;4.546;2024-03-07T10:04:51;8.30;79.00
86136;DHT22;76795;51.360;4.546;2024-03-07T10:07:19;8.30;78.70
86136;DHT22;76795;51.360;4.546;2024-03-07T10:09:45;8.40;78.30
86136;DHT22;76795;51.360;4.546;2024-03-07T10:12:11;8.40;78.00
86136;DHT22;76795;51.360;4.546;2024-03-07T10:15:02;8.50;76.70
86136;DHT22;76795;51.360;4.546;2024-03-07T10:17:27;8.50;76.40
86136;DHT22;76795;51.360;4.546;2024-03-07T10:19:54;8.40;76.20
86136;DHT22;76795;51.360;4.546;2024-03-07T10:22:21;8.60;76.00
86136;DHT22;76795;51.360;4.546;2024-03-07T10:24:55;8.60;77.40
86136;DHT22;76795;51.360;4.546;2024-03-07T10:27:22;8.80;77.10
86136;DHT22;76795;51.360;4.546;2024-03-07T10:29:51;8.80;76.70
86136;DHT22;76795;51.360;4.546;2024-03-07T10:32:21;8.90;75.70
86136;DHT22;76795;51.360;4.546;2024-03-07T10:34:51;8.90;74.60
86136;DHT22;76795;51.360;4.546;2024-03-07T10:37:17;8.90;74.80
86136;DHT22;76795;51.360;4.546;2024-03-07T10:39:49;8.90;75.10
86136;DHT22;76795;51.360;4.546;2024-03-07T10:42:18;8.90;75.40
86136;DHT22;76795;51.360;4.546;2024-03-07T10:44:47;9.00;74.50
86136;DHT22;76795;51.360;4.546;2024-03-07T10:52:26;9.30;73.40
86136;DHT22;76795;51.360;4.546;2024-03-07T10:58:05;9.30;73.20
86136;DHT22;76795;51.360;4.546;2024-03-07T11:00:37;9.40;73.10
86136;DHT22;76795;51.360;4.546;2024-03-07T11:03:09;9.40;73.30
86136;DHT22;76795;51.360;4.546;2024-03-07T11:05:37;9.40;71.90
86136;DHT22;76795;51.360;4.546;2024-03-07T11:08:03;9.50;72.10
86136;DHT22;76795;51.360;4.546;2024-03-07T11:10:39;9.60;72.10
86136;DHT22;76795;51.360;4.546;2024-03-07T11:13:07;9.70;71.60
86136;DHT22;76795;51.360;4.546;2024-03-07T11:15:42;9.80;71.90
86136;DHT22;76795;51.360;4.546;2024-03-07T11:18:09;9.90;70.90
86136;DHT22;76795;51.360;4.546;2024-03-07T11:20:37;10.00;71.90
86136;DHT22;76795;51.360;4.546;2024-03-07T11:23:29;9.90;71.40
86136;DHT22;76795;51.360;4.546;2024-03-07T11:26:16;9.70;70.70
86136;DHT22;76795;51.360;4.546;2024-03-07T11:28:43;9.70;72.40
86136;DHT22;76795;51.360;4.546;2024-03-07T11:33:38;9.80;71.70
86136;DHT22;76795;51.360;4.546;2024-03-07T11:36:10;10.00;70.70
86136;DHT22;76795;51.360;4.546;2024-03-07T11:38:47;10.00;72.50
86136;DHT22;76795;51.360;4.546;2024-03-07T11:41:14;10.10;71.80
86136;DHT22;76795;51.360;4.546;2024-03-07T11:43:40;10.20;70.60
86136;DHT22;76795;51.360;4.546;2024-03-07T11:46:08;10.50;72.30
86136;DHT22;76795;51.360;4.546;2024-03-07T11:48:40;10.60;68.50
86136;DHT22;76795;51.360;4.546;2024-03-07T11:51:17;10.70;68.60
86136;DHT22;76795;51.360;4.546;2024-03-07T11:53:43;10.70;68.40
86136;DHT22;76795;51.360;4.546;2024-03-07T11:56:09;10.60;67.80
86136;DHT22;76795;51.360;4.546;2024-03-07T11:58:46;10.50;68.60
86136;DHT22;76795;51.360;4.546;2024-03-07T12:01:21;10.60;67.90
86136;DHT22;76795;51.360;4.546;2024-03-07T12:03:50;10.60;68.80
86136;DHT22;76795;51.360;4.546;2024-03-07T12:06:18;10.70;68.60
86136;DHT22;76795;51.360;4.546;2024-03-07T12:08:45;10.80;67.10
86136;DHT22;76795;51.360;4.546;2024-03-07T12:11:11;10.70;66.80
86136;DHT22;76795;51.360;4.546;2024-03-07T12:13:41;10.60;68.50
86136;DHT22;76795;51.360;4.546;2024-03-07T12:16:07;10.60;68.10
86136;DHT22;76795;51.360;4.546;2024-03-07T12:18:34;10.50;67.90
86136;DHT22;76795;51.360;4.546;2024-03-07T12:21:01;10.50;68.40
86136;DHT22;76795;51.360;4.546;2024-03-07T12:23:32;10.60;68.30
86136;DHT22;76795;51.360;4.546;2024-03-07T12:26:03;10.60;67.60
86136;DHT22;76795;51.360;4.546;2024-03-07T12:28:29;10.80;68.70
86136;DHT22;76795;51.360;4.546;2024-03-07T12:30:59;10.90;67.00
86136;DHT22;76795;51.360;4.546;2024-03-07T12:33:29;11.00;67.30
86136;DHT22;76795;51.360;4.546;2024-03-07T12:35:56;10.90;66.10
86136;DHT22;76795;51.360;4.546;2024-03-07T12:38:32;11.00;66.00
86136;DHT22;76795;51.360;4.546;2024-03-07T12:41:10;11.10;66.70
86136;DHT22;76795;51.360;4.546;2024-03-07T12:43:40;11.00;66.50
86136;DHT22;76795;51.360;4.546;2024-03-07T12:46:12;11.00;67.40
86136;DHT22;76795;51.360;4.546;2024-03-07T12:48:39;11.10;65.40
86136;DHT22;76795;51.360;4.546;2024-03-07T12:51:04;11.00;65.30
86136;DHT22;76795;51.360;4.546;2024-03-07T12:53:31;10.90;65.80
86136;DHT22;76795;51.360;4.546;2024-03-07T12:55:57;10.90;65.90
86136;DHT22;76795;51.360;4.546;2024-03-07T12:58:23;10.90;67.90
86136;DHT22;76795;51.360;4.546;2024-03-07T13:00:55;11.00;66.70
86136;DHT22;76795;51.360;4.546;2024-03-07T13:03:24;11.00;64.70
86136;DHT22;76795;51.360;4.546;2024-03-07T13:05:56;11.00;64.90
86136;DHT22;76795;51.360;4.546;2024-03-07T13:08:26;11.10;65.40
86136;DHT22;76795;51.360;4.546;2024-03-07T13:10:54;11.30;64.90
86136;DHT22;76795;51.360;4.546;2024-03-07T13:13:21;11.20;65.40
86136;DHT22;76795;51.360;4.546;2024-03-07T13:15:47;11.20;65.20
86136;DHT22;76795;51.360;4.546;2024-03-07T13:18:13;11.20;64.10
86136;DHT22;76795;51.360;4.546;2024-03-07T13:20:39;11.30;67.40
86136;DHT22;76795;51.360;4.546;2024-03-07T13:23:08;11.50;65.50
86136;DHT22;76795;51.360;4.546;2024-03-07T13:25:34;11.60;63.70
86136;DHT22;76795;51.360;4.546;2024-03-07T13:30:34;12.10;63.30
86136;DHT22;76795;51.360;4.546;2024-03-07T13:33:02;12.10;62.40
86136;DHT22;76795;51.360;4.546;2024-03-07T13:35:29;11.90;61.80
86136;DHT22;76795;51.360;4.546;2024-03-07T13:37:55;11.80;61.70
86136;DHT22;76795;51.360;4.546;2024-03-07T13:40:23;11.70;61.90
86136;DHT22;76795;51.360;4.546;2024-03-07T13:45:20;11.80;61.40
86136;DHT22;76795;51.360;4.546;2024-03-07T13:47:47;11.90;62.50
86136;DHT22;76795;51.360;4.546;2024-03-07T13:50:17;12.00;61.10
86136;DHT22;76795;51.360;4.546;2024-03-07T13:52:46;11.80;62.10
86136;DHT22;76795;51.360;4.546;2024-03-07T13:55:31;11.80;61.60
86136;DHT22;76795;51.360;4.546;2024-03-07T13:58:03;11.50;60.10
86136;DHT22;76795;51.360;4.546;2024-03-07T14:00:54;11.30;61.50
86136;DHT22;76795;51.360;4.546;2024-03-07T14:06:09;11.30;62.10
86136;DHT22;76795;51.360;4.546;2024-03-07T14:12:12;11.80;59.20
86136;DHT22;76795;51.360;4.546;2024-03-07T14:31:57;12.30;57.20
86136;DHT22;76795;51.360;4.546;2024-03-07T14:34:36;12.50;57.30
86136;DHT22;76795;51.360;4.546;2024-03-07T14:37:11;13.70;57.90
86136;DHT22;76795;51.360;4.546;2024-03-07T14:39:43;15.50;51.90
86136;DHT22;76795;51.360;4.546;2024-03-07T14:42:11;17.00;47.10
86136;DHT22;76795;51.360;4.546;2024-03-07T14:44:42;17.30;45.20
86136;DHT22;76795;51.360;4.546;2024-03-07T14:47:12;16.70;46.20
86136;DHT22;76795;51.360;4.546;2024-03-07T14:49:40;17.30;46.10
86136;DHT22;76795;51.360;4.546;2024-03-07T14:52:07;17.70;44.50
86136;DHT22;76795;51.360;4.546;2024-03-07T14:54:37;18.20;44.00
86136;DHT22;76795;51.360;4.546;2024-03-07T14:57:04;18.30;42.80
86136;DHT22;76795;51.360;4.546;2024-03-07T14:59:31;19.10;42.20
86136;DHT22;76795;51.360;4.546;2024-03-07T15:01:57;18.80;42.60
86136;DHT22;76795;51.360;4.546;2024-03-07T15:04:26;18.60;43.20
86136;DHT22;76795;51.360;4.546;2024-03-07T15:06:52;18.60;43.10
86136;DHT22;76795;51.360;4.546;2024-03-07T15:09:22;18.70;43.10
86136;DHT22;76795;51.360;4.546;2024-03-07T15:11:48;18.70;44.70
86136;DHT22;76795;51.360;4.546;2024-03-07T15:14:14;19.00;42.60
86136;DHT22;76795;51.360;4.546;2024-03-07T15:16:41;18.40;43.60
86136;DHT22;76795;51.360;4.546;2024-03-07T15:19:10;19.00;45.70
86136;DHT22;76795;51.360;4.546;2024-03-07T15:21:36;17.70;45.40
86136;DHT22;76795;51.360;4.546;2024-03-07T15:24:06;18.00;44.50
86136;DHT22;76795;51.360;4.546;2024-03-07T15:26:32;18.10;44.80
86136;DHT22;76795;51.360;4.546;2024-03-07T15:28:59;18.30;44.80
86136;DHT22;76795;51.360;4.546;2024-03-07T15:31:27;17.70;44.30
86136;DHT22;76795;51.360;4.546;2024-03-07T15:33:53;17.50;45.10
86136;DHT22;76795;51.360;4.546;2024-03-07T15:36:20;16.90;45.30
86136;DHT22;76795;51.360;4.546;2024-03-07T15:38:47;16.90;45.80
86136;DHT22;76795;51.360;4.546;2024-03-07T15:41:14;16.70;46.20
86136;DHT22;76795;51.360;4.546;2024-03-07T15:43:40;16.30;47.90
86136;DHT22;76795;51.360;4.546;2024-03-07T15:46:13;16.40;47.70
86136;DHT22;76795;51.360;4.546;2024-03-07T15:48:44;16.70;46.90
86136;DHT22;76795;51.360;4.546;2024-03-07T15:51:10;16.80;46.10
86136;DHT22;76795;51.360;4.546;2024-03-07T15:53:36;16.80;47.30
86136;DHT22;76795;51.360;4.546;2024-03-07T15:56:02;16.30;47.80
86136;DHT22;76795;51.360;4.546;2024-03-07T15:58:27;16.60;49.20
86136;DHT22;76795;51.360;4.546;2024-03-07T16:00:54;16.30;48.00
86136;DHT22;76795;51.360;4.546;2024-03-07T16:03:19;16.70;48.50
86136;DHT22;76795;51.360;4.546;2024-03-07T16:05:49;17.10;47.30
86136;DHT22;76795;51.360;4.546;2024-03-07T16:08:15;16.90;46.10
86136;DHT22;76795;51.360;4.546;2024-03-07T16:10:43;16.60;46.00
86136;DHT22;76795;51.360;4.546;2024-03-07T16:13:13;16.10;47.00
86136;DHT22;76795;51.360;4.546;2024-03-07T16:15:41;15.70;48.20
86136;DHT22;76795;51.360;4.546;2024-03-07T16:18:09;15.70;48.50
86136;DHT22;76795;51.360;4.546;2024-03-07T16:20:35;15.60;48.00
86136;DHT22;76795;51.360;4.546;2024-03-07T16:23:01;14.70;49.90
86136;DHT22;76795;51.360;4.546;2024-03-07T16:25:32;14.00;51.50
86136;DHT22;76795;51.360;4.546;2024-03-07T16:27:59;13.70;52.30